Pagrindinis puslapis
METAR-TAF:

METAR-TAF

Oro uostai :

Tarapoto, Peru

platuma: 06-27S, ilguma: 076-23W, Aukštis: 281 m

Dabartinis oras

Ataskaita buvo paskelbta 2 valandos ir 9 minutes, ne 03:00 UTC
Ramus vėjas
Temperatūra 26°C
Drėgmė 89%
Slėgis 1013 hPa
Matomumas 10 km arba daugiau
Išsisklaidę debesys ne aukštis 2500 ft

METAR: SPST 290300Z 00000KT 9999 SCT025 26/24 Q1013 RMK BIRD HAZARD RWY 17/35 PP000

Laikas: 00:09 (05:09 UTC)

Prognozė

Ataskaita buvo paskelbta 6 valandos ir 9 minutes, ne 23:00 UTC
Prognozė galioja nuo 29 metu 00 UTC su 29 metu 24 UTC
Vėjas kt iš Šiaurės
Matomumas 10 km arba daugiau
Išsisklaidę debesys ne aukštis 2000 ft
Išsisklaidę debesys ne aukštis 8000 ft
Tapsmas
nuo 29 metu 08 UTC su 29 metu 10 UTC
Išsisklaidę debesys ne aukštis 1500 ft
Su prošvaistėmis ne aukštis 8000 ft
Tapsmas
nuo 29 metu 14 UTC su 29 metu 16 UTC
Vėjas 5 kt iš Šiaurės Vakarų

TAF: SPST 282300Z 2900/2924 00000KT 9999 SCT020 SCT080 TX33/2919Z TN23/2911Z BECMG 2908/2910 SCT015 BKN080 BECMG 2914/2916 32005KT

Orai ataskaitas ir orų prognozės (METAR, TAF).

turimą stotys yra geltonos ir raudonos taškus žemėlapyje.

Perkelti pele per norėdami pamatyti stoties vardą.

Tada spustelėkite, norėdami matyti oro stebėjimo ir prognozės.

Norėdami pakeisti žemėlapį: spustelėkite ant žalios mygtukų su juodo kryžiaus žemyn,; žalią mygtuką su brūkšneliu, jei norite nutolinti; arba žalių rodyklių gretimoms žemėlapius.


METAR-TAF: